• Join FlightAware (Why Join?)
  • Login
  • US Flag 
12:29PM EDT


 

Airport Tracker/Info


-or-


 

Live Flight TrackerFlight Track Log ✈ TRS310 ✈ 12-Jun-2013 ✈ KGRR - KMCO

Flight Track Log - Related Links

Times and Time Zones

All times are in EDT time to prevent confusion due to time zone crossing. See the TRS310 flight status page for this flight to view local times or setup timezone preferences in your user account.

Time Position Orientation Groundspeed Altitude Reporting Facility
EDT Latitude Longitude Course Direction KTS MPH feet Rate Location/Type
12:24PM 42.8433 -85.5081 168° South 192 221 2,700  Level Chicago Center
12:25PM 42.7781 -85.4892 168° South 240 276 3,900 1,740 Climbing Chicago Center
12:26PM 42.7014 -85.4750 172° South 275 316 6,400 2,400 Climbing Chicago Center
12:27PM 42.6197 -85.4608 173° South 290 334 8,900 2,460 Climbing Chicago Center
12:28PM 42.5169 -85.4428 173° South 307 353 11,500 2,100 Climbing Chicago Center
12:30PM 42.4181 -85.4244 172° South 359 413 13,300 2,160 Climbing Chicago Center
12:31PM 42.3178 -85.4086 173° South 363 418 16,000 2,340 Climbing Chicago Center
12:32PM 42.2175 -85.3925 173° South 364 419 18,200 1,980 Climbing Chicago Center
12:33PM 42.1117 -85.3744 173° South 381 438 20,100 1,860 Climbing Chicago Center
12:34PM 41.9900 -85.3544 173° South 393 452 22,100 1,500 Climbing Chicago Center
12:35PM 41.8778 -85.3358 173° South 403 464 23,300 900 Climbing Chicago Center
12:36PM 41.7575 -85.3164 173° South 427 491 24,000 780 Climbing Chicago Center
12:37PM 41.6258 -85.2922 172° South 458 527 25,000 780 Climbing Chicago Center
12:38PM 41.4936 -85.2689 172° South 468 539 25,700 780 Climbing Chicago Center
12:39PM 41.3622 -85.2397 171° South 474 545 26,700 960 Climbing Chicago Center
12:40PM 41.2278 -85.2119 171° South 483 556 27,800 1,080 Climbing Chicago Center
12:41PM 41.0933 -85.1847 171° South 487 560 29,000 1,080 Climbing Chicago Center
12:42PM 40.9311 -85.1508 171° South 491 565 30,100 1,140 Climbing Chicago Center
12:43PM 40.7956 -85.1217 171° South 493 567 31,400 1,020 Climbing Chicago Center
12:44PM 40.6608 -85.0944 171° South 491 565 32,300 840 Climbing Chicago Center
12:45PM 40.5603 -85.0711 170° South 488 562 33,000 360 Climbing Indianapolis Center
12:46PM 40.4242 -85.0417 171° South 493 567 33,000  Level Indianapolis Center
12:47PM 40.2647 -85.0089 171° South 491 565 33,000  Level Indianapolis Center
12:48PM 40.1286 -84.9817 171° South 490 564 33,000  Level Indianapolis Center
12:49PM 39.9944 -84.9542 171° South 487 560 33,000  Level Indianapolis Center
12:50PM 39.8586 -84.9256 171° South 489 563 33,000  Level Indianapolis Center
12:51PM 39.7208 -84.8981 171° South 494 568 33,000  Level Indianapolis Center
12:52PM 39.5858 -84.8714 171° South 490 564 33,000 -240 Level Indianapolis Center
12:53PM 39.4497 -84.8433 171° South 492 566 32,600 -960 Descending Indianapolis Center
12:54PM 39.2933 -84.8108 171° South 486 559 31,100 -840 Descending Indianapolis Center
12:55PM 39.1603 -84.7867 172° South 481 554 31,000 -60 Descending Indianapolis Center
12:56PM 39.0319 -84.7317 162° South 489 563 31,000  Level Indianapolis Center
12:57PM 38.9061 -84.6933 167° South 482 555 31,000  Level Indianapolis Center
12:58PM 38.7736 -84.6689 172° South 480 552 31,000  Level Indianapolis Center
12:59PM 38.6183 -84.6394 172° South 482 555 31,000  Level Indianapolis Center
01:00PM 38.4844 -84.6117 171° South 482 555 31,000  Level Indianapolis Center
01:01PM 38.3506 -84.5875 172° South 485 558 31,000  Level Indianapolis Center
01:02PM 38.2161 -84.5625 172° South 487 560 31,000  Level Indianapolis Center
01:03PM 38.0822 -84.5364 171° South 485 558 31,000  Level Indianapolis Center
01:04PM 37.9267 -84.5081 172° South 488 562 31,000  Level Indianapolis Center
01:05PM 37.7928 -84.4844 172° South 487 560 31,000  Level Indianapolis Center
01:06PM 37.6575 -84.4575 171° South 494 568 31,000  Level Indianapolis Center
01:07PM 37.5244 -84.4331 172° South 486 559 31,000  Level Indianapolis Center
01:09PM 37.3900 -84.4069 171° South 488 562 31,000  Level Indianapolis Center
01:10PM 37.2542 -84.3819 172° South 492 566 31,000  Level Indianapolis Center
01:11PM 37.0981 -84.3533 172° South 490 564 31,000  Level Indianapolis Center
01:12PM 36.9639 -84.3303 172° South 487 560 31,000  Level Indianapolis Center
01:13PM 36.8297 -84.3056 172° South 487 560 31,000  Level Indianapolis Center
01:14PM 36.6958 -84.2808 172° South 488 562 31,000  Level Indianapolis Center
01:15PM 36.5625 -84.2564 172° South 485 558 31,000  Level Indianapolis Center
01:16PM 36.4167 -84.2292 171° South 486 559 31,000  Level Indianapolis Center
01:17PM 36.2825 -84.2036 171° South 486 559 31,000  Level Indianapolis Center
01:18PM 36.1486 -84.1817 172° South 483 556 31,000  Level Indianapolis Center
01:18PM 36.1000 -84.1722 171° South 485 558 31,000  Level Atlanta Center
01:19PM 35.9914 -84.1542 172° South 485 558 31,000  Level Atlanta Center
01:20PM 35.8475 -84.1283 172° South 485 558 31,000  Level Atlanta Center
01:21PM 35.7142 -84.1078 173° South 485 558 31,000  Level Atlanta Center
01:22PM 35.5806 -84.0822 171° South 485 558 31,000  Level Atlanta Center
01:23PM 35.4492 -84.0592 172° South 485 558 31,000  Level Atlanta Center
01:24PM 35.3178 -84.0361 172° South 485 558 31,000  Level Atlanta Center
01:25PM 35.1842 -84.0133 172° South 485 558 31,000  Level Atlanta Center
01:26PM 35.0506 -83.9906 172° South 485 558 31,000  Level Atlanta Center
01:27PM 34.9169 -83.9678 172° South 485 558 31,000  Level Atlanta Center
01:28PM 34.7836 -83.9428 171° South 485 558 31,000  Level Atlanta Center
01:29PM 34.6519 -83.9175 171° South 480 552 31,000  Level Atlanta Center
01:30PM 34.5206 -83.8950 172° South 485 558 31,000  Level Atlanta Center
01:31PM 34.3744 -83.8728 173° South 485 558 31,000  Level Atlanta Center
01:32PM 34.2428 -83.8478 171° South 479 551 31,000  Level Atlanta Center
01:33PM 34.1092 -83.8231 171° South 484 557 31,000  Level Atlanta Center
01:34PM 33.9756 -83.8033 173° South 484 557 31,000  Level Atlanta Center
01:35PM 33.8442 -83.7786 171° South 484 557 31,000  Level Atlanta Center
01:36PM 33.7125 -83.7592 173° South 484 557 31,000  Level Atlanta Center
01:37PM 33.5956 -83.7394 172° South 479 551 31,000  Level Atlanta Center
01:38PM 33.4619 -83.7175 172° South 485 558 31,000  Level Atlanta Center
01:39PM 33.3325 -83.6981 173° South 480 552 31,000  Level Atlanta Center
01:40PM 33.2031 -83.6764 172° South 480 552 31,000  Level Atlanta Center
01:41PM 33.0714 -83.6544 172° South 480 552 31,000  Level Atlanta Center
01:42PM 32.9442 -83.6328 172° South 480 552 31,000  Level Atlanta Center
01:43PM 32.8125 -83.6111 172° South 475 547 31,000  Level Atlanta Center
01:44PM 32.6808 -83.5872 171° South 480 552 31,000  Level Atlanta Center
01:45PM 32.5514 -83.5656 172° South 480 552 31,000  Level Atlanta Center
01:46PM 32.4219 -83.5467 173° South 480 552 31,000  Level Atlanta Center
01:50PM 31.9419 -83.4656 172° South 476 548 31,000  Level Jacksonville Center
01:51PM 31.8103 -83.4425 172° South 489 563 31,000  Level Jacksonville Center
01:52PM 31.6661 -83.4661 188° South 478 550 31,000  Level Jacksonville Center
01:53PM 31.5367 -83.4972 192° South 478 550 31,000  Level Jacksonville Center
01:54PM 31.4069 -83.5303 192° South 483 556 31,000  Level Jacksonville Center
01:55PM 31.2775 -83.5172 175° South 465 535 31,000  Level Jacksonville Center
01:56PM 31.1569 -83.4583 157° South 460 529 31,000  Level Jacksonville Center
01:57PM 31.0381 -83.3994 157° South 460 529 31,000 -300 Level Jacksonville Center
01:58PM 30.9172 -83.3453 159° South 465 535 30,400 -840 Descending Jacksonville Center
01:59PM 30.7983 -83.2867 157° South 472 543 29,400 -1,020 Descending Jacksonville Center
02:00PM 30.6983 -83.1922 141° Southeast 459 528 28,400 -1,200 Descending Jacksonville Center
02:01PM 30.6025 -83.0928 138° Southeast 464 534 27,000 -1,200 Descending Jacksonville Center
02:02PM 30.5108 -82.9986 138° Southeast 459 528 26,000 -1,020 Descending Jacksonville Center
02:03PM 30.4169 -82.9047 139° Southeast 447 514 25,000 -540 Descending Jacksonville Center
02:04PM 30.3250 -82.8108 139° Southeast 442 509 25,000  Level Jacksonville Center
02:05PM 30.2331 -82.7172 139° Southeast 437 503 25,000  Level Jacksonville Center
02:06PM 30.1514 -82.6356 139° Southeast 437 503 25,000  Level Jacksonville Center
02:07PM 30.0594 -82.5447 139° Southeast 437 503 25,000  Level Jacksonville Center
02:08PM 29.9547 -82.4514 142° Southeast 437 503 25,000 -360 Level Jacksonville Center
02:09PM 29.8417 -82.3969 157° South 437 503 24,300 -780 Descending Jacksonville Center
02:10PM 29.7433 -82.3472 156° South 437 503 23,500 -900 Descending Jacksonville Center
02:11PM 29.6347 -82.2953 157° South 431 496 22,600 -900 Descending Jacksonville Center
02:12PM 29.5278 -82.2433 157° South 420 483 21,700 -900 Descending Jacksonville Center
02:13PM 29.4233 -82.1917 157° South 415 478 20,900 -1,080 Descending Jacksonville Center
02:14PM 29.3206 -82.1422 157° South 415 478 19,600 -1,800 Descending Jacksonville Center
02:15PM 29.2203 -82.0931 157° South 405 466 17,300 -2,280 Descending Jacksonville Center
02:16PM 29.1197 -82.0489 159° South 398 458 15,100 -2,100 Descending Jacksonville Center
02:17PM 29.0256 -82.0019 156° South 383 441 13,100 -1,860 Descending Jacksonville Center
02:18PM 28.9353 -81.9578 157° South 368 423 11,400 -1,140 Descending Jacksonville Center
02:19PM 28.8600 -81.9064 149° Southeast 339 390 10,900 -780 Descending Jacksonville Center
02:20PM 28.8133 -81.8264 124° Southeast 305 351 9,900 -1,380 Descending Jacksonville Center
02:20PM 28.8000 -81.7833 109° East 305 351 9,000 -720 Descending Orlando TRACON
02:21PM 28.7833 -81.7000 103° East 302 348 9,000 -180 Level Orlando TRACON
02:22PM 28.7667 -81.6000 101° East 299 344 8,700 -960 Descending Orlando TRACON
02:23PM 28.7333 -81.5000 111° Southeast 290 334 6,900 -1,260 Descending Orlando TRACON
02:24PM 28.7000 -81.4333 120° Southeast 245 282 6,100 -1,080 Descending Orlando TRACON
02:25PM 28.6667 -81.3833 127° Southeast 240 276 5,000 -1,500 Descending Orlando TRACON
02:26PM 28.6000 -81.3667 168° South 233 268 3,400 -1,320 Descending Orlando TRACON
02:27PM 28.5500 -81.3333 150° Southeast 216 249 2,500 -1,140 Descending Orlando TRACON
02:28PM 28.5000 -81.3333 180° South 161 185 1,200 -1,200 Descending Orlando TRACON
02:30PM 28.4294 -81.3090 180° South  Level Estimated
02:37PM 28.4294 -81.3090 24° Northeast  Level Estimated
02:38PM 28.4294 -81.3090 24° Northeast  Level Estimated
02:39PM 28.4294 -81.3090 24° Northeast  Level Estimated
02:40PM 28.4294 -81.3090 24° Northeast  Level Estimated